sensor_id;sensor_type;location;lat;lon;timestamp;P1;durP1;ratioP1;P2;durP2;ratioP2
77204;SDS011;67992;46.618;18.850;2023-03-09T00:00:30;1.30;;;1.00;;
77204;SDS011;67992;46.618;18.850;2023-03-09T00:02:57;1.35;;;1.02;;
77204;SDS011;67992;46.618;18.850;2023-03-09T00:05:23;1.20;;;1.00;;
77204;SDS011;67992;46.618;18.850;2023-03-09T00:07:49;0.93;;;0.93;;
77204;SDS011;67992;46.618;18.850;2023-03-09T00:10:15;1.30;;;1.10;;
77204;SDS011;67992;46.618;18.850;2023-03-09T00:12:41;0.98;;;0.95;;
77204;SDS011;67992;46.618;18.850;2023-03-09T00:15:08;1.17;;;0.85;;
77204;SDS011;67992;46.618;18.850;2023-03-09T00:17:35;1.08;;;0.90;;
77204;SDS011;67992;46.618;18.850;2023-03-09T00:20:01;1.27;;;1.00;;
77204;SDS011;67992;46.618;18.850;2023-03-09T00:22:46;0.82;;;0.82;;
77204;SDS011;67992;46.618;18.850;2023-03-09T00:25:13;0.80;;;0.80;;
77204;SDS011;67992;46.618;18.850;2023-03-09T00:27:42;1.00;;;0.90;;
77204;SDS011;67992;46.618;18.850;2023-03-09T00:30:12;0.80;;;0.80;;
77204;SDS011;67992;46.618;18.850;2023-03-09T00:32:38;0.88;;;0.88;;
77204;SDS011;67992;46.618;18.850;2023-03-09T00:35:04;1.08;;;0.95;;
77204;SDS011;67992;46.618;18.850;2023-03-09T00:37:31;0.80;;;0.80;;
77204;SDS011;67992;46.618;18.850;2023-03-09T00:39:57;1.55;;;1.10;;
77204;SDS011;67992;46.618;18.850;2023-03-09T00:42:23;1.52;;;0.95;;
77204;SDS011;67992;46.618;18.850;2023-03-09T00:44:49;1.17;;;1.08;;
77204;SDS011;67992;46.618;18.850;2023-03-09T00:47:16;0.77;;;0.75;;
77204;SDS011;67992;46.618;18.850;2023-03-09T00:49:42;0.77;;;0.77;;
77204;SDS011;67992;46.618;18.850;2023-03-09T00:52:07;0.70;;;0.70;;
77204;SDS011;67992;46.618;18.850;2023-03-09T00:54:33;1.00;;;0.82;;
77204;SDS011;67992;46.618;18.850;2023-03-09T00:57:02;0.80;;;0.80;;
77204;SDS011;67992;46.618;18.850;2023-03-09T00:59:30;1.08;;;0.75;;
77204;SDS011;67992;46.618;18.850;2023-03-09T01:01:59;0.70;;;0.70;;
77204;SDS011;67992;46.618;18.850;2023-03-09T01:04:33;0.85;;;0.85;;
77204;SDS011;67992;46.618;18.850;2023-03-09T01:06:59;1.10;;;1.00;;
77204;SDS011;67992;46.618;18.850;2023-03-09T01:09:28;1.05;;;1.00;;
77204;SDS011;67992;46.618;18.850;2023-03-09T01:11:53;1.40;;;1.17;;
77204;SDS011;67992;46.618;18.850;2023-03-09T01:14:22;0.47;;;0.47;;
77204;SDS011;67992;46.618;18.850;2023-03-09T01:16:50;1.00;;;0.90;;
77204;SDS011;67992;46.618;18.850;2023-03-09T01:19:19;0.98;;;0.88;;
77204;SDS011;67992;46.618;18.850;2023-03-09T01:21:44;1.30;;;0.88;;
77204;SDS011;67992;46.618;18.850;2023-03-09T01:24:13;0.80;;;0.80;;
77204;SDS011;67992;46.618;18.850;2023-03-09T01:26:45;0.70;;;0.70;;
77204;SDS011;67992;46.618;18.850;2023-03-09T01:29:14;0.60;;;0.60;;
77204;SDS011;67992;46.618;18.850;2023-03-09T01:31:45;0.50;;;0.50;;
77204;SDS011;67992;46.618;18.850;2023-03-09T01:34:14;0.85;;;0.75;;
77204;SDS011;67992;46.618;18.850;2023-03-09T01:36:46;0.68;;;0.65;;
77204;SDS011;67992;46.618;18.850;2023-03-09T01:39:12;1.20;;;1.05;;
77204;SDS011;67992;46.618;18.850;2023-03-09T01:41:45;1.13;;;0.80;;
77204;SDS011;67992;46.618;18.850;2023-03-09T01:44:17;0.88;;;0.77;;
77204;SDS011;67992;46.618;18.850;2023-03-09T01:46:52;0.80;;;0.73;;
77204;SDS011;67992;46.618;18.850;2023-03-09T01:52:15;0.77;;;0.70;;
77204;SDS011;67992;46.618;18.850;2023-03-09T01:57:26;1.08;;;0.90;;
77204;SDS011;67992;46.618;18.850;2023-03-09T02:00:07;0.73;;;0.73;;
77204;SDS011;67992;46.618;18.850;2023-03-09T02:02:41;0.82;;;0.82;;
77204;SDS011;67992;46.618;18.850;2023-03-09T02:05:11;1.33;;;0.95;;
77204;SDS011;67992;46.618;18.850;2023-03-09T02:07:42;1.15;;;0.68;;
77204;SDS011;67992;46.618;18.850;2023-03-09T02:10:17;1.15;;;0.80;;
77204;SDS011;67992;46.618;18.850;2023-03-09T02:12:50;1.02;;;0.93;;
77204;SDS011;67992;46.618;18.850;2023-03-09T02:15:25;0.77;;;0.77;;
77204;SDS011;67992;46.618;18.850;2023-03-09T02:18:00;0.80;;;0.80;;
77204;SDS011;67992;46.618;18.850;2023-03-09T02:23:01;1.10;;;1.00;;
77204;SDS011;67992;46.618;18.850;2023-03-09T02:25:31;0.52;;;0.52;;
77204;SDS011;67992;46.618;18.850;2023-03-09T02:28:08;0.63;;;0.60;;
77204;SDS011;67992;46.618;18.850;2023-03-09T02:30:41;0.70;;;0.70;;
77204;SDS011;67992;46.618;18.850;2023-03-09T02:33:11;0.52;;;0.52;;
77204;SDS011;67992;46.618;18.850;2023-03-09T02:35:55;0.68;;;0.68;;
77204;SDS011;67992;46.618;18.850;2023-03-09T02:38:23;0.80;;;0.80;;
77204;SDS011;67992;46.618;18.850;2023-03-09T02:40:56;1.10;;;0.80;;
77204;SDS011;67992;46.618;18.850;2023-03-09T02:43:24;0.95;;;0.88;;
77204;SDS011;67992;46.618;18.850;2023-03-09T02:45:57;0.80;;;0.80;;
77204;SDS011;67992;46.618;18.850;2023-03-09T02:48:23;0.98;;;0.98;;
77204;SDS011;67992;46.618;18.850;2023-03-09T02:50:54;1.00;;;0.80;;
77204;SDS011;67992;46.618;18.850;2023-03-09T02:53:20;1.23;;;0.75;;
77204;SDS011;67992;46.618;18.850;2023-03-09T02:55:49;0.98;;;0.80;;
77204;SDS011;67992;46.618;18.850;2023-03-09T02:58:18;1.08;;;0.98;;
77204;SDS011;67992;46.618;18.850;2023-03-09T03:00:50;1.20;;;0.85;;
77204;SDS011;67992;46.618;18.850;2023-03-09T03:03:18;1.15;;;0.90;;
77204;SDS011;67992;46.618;18.850;2023-03-09T03:05:45;1.63;;;1.05;;
77204;SDS011;67992;46.618;18.850;2023-03-09T03:08:15;0.88;;;0.85;;
77204;SDS011;67992;46.618;18.850;2023-03-09T03:10:41;1.02;;;0.82;;
77204;SDS011;67992;46.618;18.850;2023-03-09T03:13:06;1.00;;;0.90;;
77204;SDS011;67992;46.618;18.850;2023-03-09T03:15:32;1.02;;;0.90;;
77204;SDS011;67992;46.618;18.850;2023-03-09T03:17:58;0.73;;;0.73;;
77204;SDS011;67992;46.618;18.850;2023-03-09T03:20:24;1.10;;;0.90;;
77204;SDS011;67992;46.618;18.850;2023-03-09T03:22:51;1.17;;;0.82;;
77204;SDS011;67992;46.618;18.850;2023-03-09T03:25:19;0.77;;;0.68;;
77204;SDS011;67992;46.618;18.850;2023-03-09T03:27:54;1.00;;;0.90;;
77204;SDS011;67992;46.618;18.850;2023-03-09T03:30:20;1.13;;;1.00;;
77204;SDS011;67992;46.618;18.850;2023-03-09T03:32:52;0.70;;;0.68;;
77204;SDS011;67992;46.618;18.850;2023-03-09T03:35:20;0.90;;;0.73;;
77204;SDS011;67992;46.618;18.850;2023-03-09T03:37:49;1.25;;;1.00;;
77204;SDS011;67992;46.618;18.850;2023-03-09T03:40:14;0.73;;;0.60;;
77204;SDS011;67992;46.618;18.850;2023-03-09T03:42:44;1.23;;;1.13;;
77204;SDS011;67992;46.618;18.850;2023-03-09T03:45:14;1.23;;;1.02;;
77204;SDS011;67992;46.618;18.850;2023-03-09T03:47:45;1.02;;;0.90;;
77204;SDS011;67992;46.618;18.850;2023-03-09T03:50:17;1.20;;;1.00;;
77204;SDS011;67992;46.618;18.850;2023-03-09T03:52:43;2.00;;;1.08;;
77204;SDS011;67992;46.618;18.850;2023-03-09T03:55:12;1.30;;;1.00;;
77204;SDS011;67992;46.618;18.850;2023-03-09T03:57:37;0.95;;;0.82;;
77204;SDS011;67992;46.618;18.850;2023-03-09T04:00:06;0.60;;;0.60;;
77204;SDS011;67992;46.618;18.850;2023-03-09T04:02:36;1.10;;;0.90;;
77204;SDS011;67992;46.618;18.850;2023-03-09T04:05:11;1.20;;;1.10;;
77204;SDS011;67992;46.618;18.850;2023-03-09T04:07:40;0.80;;;0.73;;
77204;SDS011;67992;46.618;18.850;2023-03-09T04:10:06;1.25;;;0.90;;
77204;SDS011;67992;46.618;18.850;2023-03-09T04:12:35;1.13;;;1.02;;
77204;SDS011;67992;46.618;18.850;2023-03-09T04:15:01;1.40;;;1.10;;
77204;SDS011;67992;46.618;18.850;2023-03-09T04:17:27;0.82;;;0.80;;
77204;SDS011;67992;46.618;18.850;2023-03-09T04:19:55;0.93;;;0.75;;
77204;SDS011;67992;46.618;18.850;2023-03-09T04:22:24;0.82;;;0.82;;
77204;SDS011;67992;46.618;18.850;2023-03-09T04:24:51;1.17;;;0.95;;
77204;SDS011;67992;46.618;18.850;2023-03-09T04:27:22;0.88;;;0.82;;
77204;SDS011;67992;46.618;18.850;2023-03-09T04:29:51;1.48;;;1.30;;
77204;SDS011;67992;46.618;18.850;2023-03-09T04:32:23;1.40;;;1.10;;
77204;SDS011;67992;46.618;18.850;2023-03-09T04:34:52;1.48;;;1.20;;
77204;SDS011;67992;46.618;18.850;2023-03-09T04:37:23;1.58;;;1.20;;
77204;SDS011;67992;46.618;18.850;2023-03-09T04:39:55;1.45;;;1.27;;
77204;SDS011;67992;46.618;18.850;2023-03-09T04:42:20;1.60;;;1.20;;
77204;SDS011;67992;46.618;18.850;2023-03-09T04:44:49;1.40;;;1.17;;
77204;SDS011;67992;46.618;18.850;2023-03-09T04:52:48;1.25;;;1.00;;
77204;SDS011;67992;46.618;18.850;2023-03-09T05:00:11;1.63;;;1.20;;
77204;SDS011;67992;46.618;18.850;2023-03-09T05:02:43;1.15;;;0.90;;
77204;SDS011;67992;46.618;18.850;2023-03-09T05:05:13;1.27;;;1.17;;
77204;SDS011;67992;46.618;18.850;2023-03-09T05:07:44;1.05;;;0.98;;
77204;SDS011;67992;46.618;18.850;2023-03-09T05:10:13;1.45;;;1.20;;
77204;SDS011;67992;46.618;18.850;2023-03-09T05:12:44;1.20;;;1.00;;
77204;SDS011;67992;46.618;18.850;2023-03-09T05:15:10;1.73;;;1.05;;
77204;SDS011;67992;46.618;18.850;2023-03-09T05:17:38;1.52;;;1.20;;
77204;SDS011;67992;46.618;18.850;2023-03-09T05:20:08;1.42;;;1.00;;
77204;SDS011;67992;46.618;18.850;2023-03-09T05:22:41;2.38;;;1.40;;
77204;SDS011;67992;46.618;18.850;2023-03-09T05:25:10;1.30;;;1.00;;
77204;SDS011;67992;46.618;18.850;2023-03-09T05:27:41;0.95;;;0.95;;
77204;SDS011;67992;46.618;18.850;2023-03-09T05:30:16;1.38;;;1.13;;
77204;SDS011;67992;46.618;18.850;2023-03-09T05:32:48;1.55;;;1.20;;
77204;SDS011;67992;46.618;18.850;2023-03-09T05:35:18;1.33;;;1.00;;
77204;SDS011;67992;46.618;18.850;2023-03-09T05:37:47;1.15;;;1.05;;
77204;SDS011;67992;46.618;18.850;2023-03-09T05:40:13;1.70;;;1.25;;
77204;SDS011;67992;46.618;18.850;2023-03-09T05:42:42;1.65;;;1.20;;
77204;SDS011;67992;46.618;18.850;2023-03-09T05:45:14;0.98;;;0.82;;
77204;SDS011;67992;46.618;18.850;2023-03-09T05:47:43;1.42;;;1.10;;
77204;SDS011;67992;46.618;18.850;2023-03-09T05:50:12;1.13;;;0.88;;
77204;SDS011;67992;46.618;18.850;2023-03-09T05:52:40;1.08;;;1.00;;
77204;SDS011;67992;46.618;18.850;2023-03-09T05:55:12;1.20;;;1.10;;
77204;SDS011;67992;46.618;18.850;2023-03-09T05:57:38;1.73;;;1.10;;
77204;SDS011;67992;46.618;18.850;2023-03-09T06:00:04;1.80;;;1.30;;
77204;SDS011;67992;46.618;18.850;2023-03-09T06:02:44;1.35;;;1.17;;
77204;SDS011;67992;46.618;18.850;2023-03-09T06:05:12;1.15;;;1.02;;
77204;SDS011;67992;46.618;18.850;2023-03-09T06:07:44;1.23;;;1.10;;
77204;SDS011;67992;46.618;18.850;2023-03-09T06:10:10;1.35;;;1.00;;
77204;SDS011;67992;46.618;18.850;2023-03-09T06:12:39;1.45;;;1.20;;
77204;SDS011;67992;46.618;18.850;2023-03-09T06:15:11;1.10;;;1.00;;
77204;SDS011;67992;46.618;18.850;2023-03-09T06:17:44;1.20;;;1.10;;
77204;SDS011;67992;46.618;18.850;2023-03-09T06:20:10;1.25;;;1.10;;
77204;SDS011;67992;46.618;18.850;2023-03-09T06:22:35;1.20;;;1.10;;
77204;SDS011;67992;46.618;18.850;2023-03-09T06:25:10;1.55;;;1.17;;
77204;SDS011;67992;46.618;18.850;2023-03-09T06:27:38;1.17;;;1.02;;
77204;SDS011;67992;46.618;18.850;2023-03-09T06:30:05;1.20;;;1.10;;
77204;SDS011;67992;46.618;18.850;2023-03-09T06:32:34;1.40;;;1.20;;
77204;SDS011;67992;46.618;18.850;2023-03-09T06:35:06;2.22;;;1.40;;
77204;SDS011;67992;46.618;18.850;2023-03-09T06:37:32;1.95;;;1.27;;
77204;SDS011;67992;46.618;18.850;2023-03-09T06:40:04;1.17;;;1.08;;
77204;SDS011;67992;46.618;18.850;2023-03-09T06:42:30;1.58;;;1.05;;
77204;SDS011;67992;46.618;18.850;2023-03-09T06:45:02;1.48;;;1.00;;
77204;SDS011;67992;46.618;18.850;2023-03-09T06:47:30;1.13;;;1.02;;
77204;SDS011;67992;46.618;18.850;2023-03-09T06:49:59;1.23;;;1.10;;
77204;SDS011;67992;46.618;18.850;2023-03-09T06:52:29;1.42;;;1.10;;
77204;SDS011;67992;46.618;18.850;2023-03-09T06:54:58;1.10;;;1.00;;
77204;SDS011;67992;46.618;18.850;2023-03-09T06:57:27;0.95;;;0.90;;
77204;SDS011;67992;46.618;18.850;2023-03-09T06:59:58;1.38;;;1.20;;
77204;SDS011;67992;46.618;18.850;2023-03-09T07:02:26;1.35;;;1.17;;
77204;SDS011;67992;46.618;18.850;2023-03-09T07:07:22;1.50;;;1.20;;
77204;SDS011;67992;46.618;18.850;2023-03-09T07:09:48;1.40;;;1.10;;
77204;SDS011;67992;46.618;18.850;2023-03-09T07:12:13;1.40;;;1.00;;
77204;SDS011;67992;46.618;18.850;2023-03-09T07:14:39;1.30;;;1.02;;
77204;SDS011;67992;46.618;18.850;2023-03-09T07:17:05;1.23;;;1.10;;
77204;SDS011;67992;46.618;18.850;2023-03-09T07:19:30;1.60;;;1.08;;
77204;SDS011;67992;46.618;18.850;2023-03-09T07:21:56;1.27;;;1.15;;
77204;SDS011;67992;46.618;18.850;2023-03-09T07:24:22;1.50;;;1.13;;
77204;SDS011;67992;46.618;18.850;2023-03-09T07:26:47;1.15;;;1.05;;
77204;SDS011;67992;46.618;18.850;2023-03-09T07:29:14;1.23;;;1.05;;
77204;SDS011;67992;46.618;18.850;2023-03-09T07:31:41;1.92;;;1.20;;
77204;SDS011;67992;46.618;18.850;2023-03-09T07:34:06;1.38;;;1.00;;
77204;SDS011;67992;46.618;18.850;2023-03-09T07:36:32;2.00;;;1.20;;
77204;SDS011;67992;46.618;18.850;2023-03-09T07:38:57;1.25;;;1.15;;
77204;SDS011;67992;46.618;18.850;2023-03-09T07:41:23;1.60;;;1.25;;
77204;SDS011;67992;46.618;18.850;2023-03-09T07:43:49;1.13;;;1.02;;
77204;SDS011;67992;46.618;18.850;2023-03-09T07:46:16;0.95;;;0.90;;
77204;SDS011;67992;46.618;18.850;2023-03-09T07:48:43;0.95;;;0.88;;
77204;SDS011;67992;46.618;18.850;2023-03-09T07:51:10;2.00;;;1.30;;
77204;SDS011;67992;46.618;18.850;2023-03-09T07:53:38;1.15;;;1.00;;
77204;SDS011;67992;46.618;18.850;2023-03-09T07:56:04;1.23;;;1.10;;
77204;SDS011;67992;46.618;18.850;2023-03-09T07:58:33;1.23;;;1.10;;
77204;SDS011;67992;46.618;18.850;2023-03-09T08:01:00;1.80;;;1.30;;
77204;SDS011;67992;46.618;18.850;2023-03-09T08:03:28;1.23;;;1.10;;
77204;SDS011;67992;46.618;18.850;2023-03-09T08:05:54;1.50;;;1.20;;
77204;SDS011;67992;46.618;18.850;2023-03-09T08:08:24;1.33;;;1.13;;
77204;SDS011;67992;46.618;18.850;2023-03-09T08:10:51;1.38;;;1.20;;
77204;SDS011;67992;46.618;18.850;2023-03-09T08:13:18;1.20;;;0.95;;
77204;SDS011;67992;46.618;18.850;2023-03-09T08:15:45;1.13;;;1.02;;
77204;SDS011;67992;46.618;18.850;2023-03-09T08:18:11;1.23;;;1.13;;
77204;SDS011;67992;46.618;18.850;2023-03-09T08:20:37;1.83;;;1.27;;
77204;SDS011;67992;46.618;18.850;2023-03-09T08:23:03;1.73;;;1.15;;
77204;SDS011;67992;46.618;18.850;2023-03-09T08:25:29;1.42;;;1.08;;
77204;SDS011;67992;46.618;18.850;2023-03-09T08:27:55;1.33;;;1.08;;
77204;SDS011;67992;46.618;18.850;2023-03-09T08:30:21;1.00;;;0.90;;
77204;SDS011;67992;46.618;18.850;2023-03-09T08:32:47;1.58;;;1.10;;
77204;SDS011;67992;46.618;18.850;2023-03-09T08:35:14;1.15;;;1.05;;
77204;SDS011;67992;46.618;18.850;2023-03-09T08:37:43;2.03;;;1.30;;
77204;SDS011;67992;46.618;18.850;2023-03-09T08:40:15;1.63;;;1.23;;
77204;SDS011;67992;46.618;18.850;2023-03-09T08:42:42;1.17;;;1.08;;
77204;SDS011;67992;46.618;18.850;2023-03-09T08:45:13;1.00;;;0.90;;
77204;SDS011;67992;46.618;18.850;2023-03-09T08:47:42;1.20;;;1.10;;
77204;SDS011;67992;46.618;18.850;2023-03-09T08:50:11;1.55;;;1.20;;
77204;SDS011;67992;46.618;18.850;2023-03-09T08:52:37;1.05;;;1.02;;
77204;SDS011;67992;46.618;18.850;2023-03-09T08:55:09;1.48;;;1.10;;
77204;SDS011;67992;46.618;18.850;2023-03-09T08:57:36;1.20;;;1.00;;
77204;SDS011;67992;46.618;18.850;2023-03-09T09:00:06;1.13;;;1.00;;
77204;SDS011;67992;46.618;18.850;2023-03-09T09:02:38;1.15;;;1.00;;
77204;SDS011;67992;46.618;18.850;2023-03-09T09:05:12;1.10;;;1.00;;
77204;SDS011;67992;46.618;18.850;2023-03-09T09:07:41;1.70;;;1.25;;
77204;SDS011;67992;46.618;18.850;2023-03-09T09:10:12;1.17;;;1.00;;
77204;SDS011;67992;46.618;18.850;2023-03-09T09:12:40;1.05;;;0.95;;
77204;SDS011;67992;46.618;18.850;2023-03-09T09:15:09;1.10;;;1.00;;
77204;SDS011;67992;46.618;18.850;2023-03-09T09:17:41;0.80;;;0.70;;
77204;SDS011;67992;46.618;18.850;2023-03-09T09:20:10;1.40;;;1.02;;
77204;SDS011;67992;46.618;18.850;2023-03-09T09:22:41;1.42;;;1.10;;
77204;SDS011;67992;46.618;18.850;2023-03-09T09:25:08;1.40;;;1.20;;
77204;SDS011;67992;46.618;18.850;2023-03-09T09:27:36;1.38;;;1.10;;
77204;SDS011;67992;46.618;18.850;2023-03-09T09:30:03;1.05;;;0.95;;
77204;SDS011;67992;46.618;18.850;2023-03-09T09:32:35;1.48;;;1.17;;
77204;SDS011;67992;46.618;18.850;2023-03-09T09:35:04;1.15;;;1.00;;
77204;SDS011;67992;46.618;18.850;2023-03-09T09:37:34;1.52;;;1.23;;
77204;SDS011;67992;46.618;18.850;2023-03-09T09:40:05;1.63;;;1.20;;
77204;SDS011;67992;46.618;18.850;2023-03-09T09:42:39;1.48;;;1.20;;
77204;SDS011;67992;46.618;18.850;2023-03-09T09:45:13;1.83;;;1.10;;
77204;SDS011;67992;46.618;18.850;2023-03-09T09:47:57;1.23;;;1.13;;
77204;SDS011;67992;46.618;18.850;2023-03-09T09:50:33;0.98;;;0.88;;
77204;SDS011;67992;46.618;18.850;2023-03-09T09:53:26;1.30;;;1.05;;
77204;SDS011;67992;46.618;18.850;2023-03-09T09:56:01;1.30;;;1.10;;
77204;SDS011;67992;46.618;18.850;2023-03-09T09:58:40;1.30;;;0.95;;
77204;SDS011;67992;46.618;18.850;2023-03-09T10:01:44;1.65;;;1.10;;
77204;SDS011;67992;46.618;18.850;2023-03-09T10:05:00;1.45;;;1.00;;
77204;SDS011;67992;46.618;18.850;2023-03-09T10:07:37;1.35;;;1.10;;
77204;SDS011;67992;46.618;18.850;2023-03-09T10:10:04;1.00;;;0.90;;
77204;SDS011;67992;46.618;18.850;2023-03-09T10:12:38;1.20;;;1.10;;
77204;SDS011;67992;46.618;18.850;2023-03-09T10:15:23;1.05;;;0.95;;
77204;SDS011;67992;46.618;18.850;2023-03-09T10:20:38;1.00;;;0.90;;
77204;SDS011;67992;46.618;18.850;2023-03-09T10:23:22;1.73;;;1.20;;
77204;SDS011;67992;46.618;18.850;2023-03-09T10:25:52;1.40;;;1.10;;
77204;SDS011;67992;46.618;18.850;2023-03-09T10:28:24;1.45;;;1.15;;
77204;SDS011;67992;46.618;18.850;2023-03-09T10:31:05;1.20;;;1.10;;
77204;SDS011;67992;46.618;18.850;2023-03-09T10:36:36;1.27;;;1.00;;
77204;SDS011;67992;46.618;18.850;2023-03-09T10:39:10;2.13;;;1.20;;
77204;SDS011;67992;46.618;18.850;2023-03-09T10:41:40;1.30;;;1.10;;
77204;SDS011;67992;46.618;18.850;2023-03-09T10:44:06;1.08;;;0.90;;
77204;SDS011;67992;46.618;18.850;2023-03-09T10:46:52;1.30;;;1.00;;
77204;SDS011;67992;46.618;18.850;2023-03-09T10:49:27;1.15;;;1.00;;
77204;SDS011;67992;46.618;18.850;2023-03-09T10:54:34;1.10;;;1.00;;
77204;SDS011;67992;46.618;18.850;2023-03-09T10:57:08;1.98;;;1.08;;
77204;SDS011;67992;46.618;18.850;2023-03-09T10:59:56;1.58;;;1.08;;
77204;SDS011;67992;46.618;18.850;2023-03-09T11:02:54;1.10;;;0.90;;
77204;SDS011;67992;46.618;18.850;2023-03-09T11:05:27;1.83;;;1.40;;
77204;SDS011;67992;46.618;18.850;2023-03-09T11:07:58;1.00;;;1.00;;
77204;SDS011;67992;46.618;18.850;2023-03-09T11:10:31;2.05;;;0.88;;
77204;SDS011;67992;46.618;18.850;2023-03-09T11:12:59;1.02;;;0.90;;
77204;SDS011;67992;46.618;18.850;2023-03-09T11:15:35;1.17;;;0.88;;
77204;SDS011;67992;46.618;18.850;2023-03-09T11:18:25;1.45;;;1.00;;
77204;SDS011;67992;46.618;18.850;2023-03-09T11:20:59;1.77;;;1.00;;
77204;SDS011;67992;46.618;18.850;2023-03-09T11:23:29;0.82;;;0.82;;
77204;SDS011;67992;46.618;18.850;2023-03-09T11:28:59;1.23;;;1.10;;
77204;SDS011;67992;46.618;18.850;2023-03-09T11:31:35;1.00;;;0.88;;
77204;SDS011;67992;46.618;18.850;2023-03-09T11:34:05;0.95;;;0.90;;
77204;SDS011;67992;46.618;18.850;2023-03-09T11:36:52;1.00;;;0.80;;
77204;SDS011;67992;46.618;18.850;2023-03-09T11:39:35;1.25;;;1.00;;
77204;SDS011;67992;46.618;18.850;2023-03-09T11:42:13;1.05;;;0.93;;
77204;SDS011;67992;46.618;18.850;2023-03-09T11:50:15;1.27;;;1.00;;
77204;SDS011;67992;46.618;18.850;2023-03-09T11:52:46;1.00;;;0.90;;
77204;SDS011;67992;46.618;18.850;2023-03-09T11:55:22;1.05;;;0.88;;
77204;SDS011;67992;46.618;18.850;2023-03-09T11:57:53;0.85;;;0.85;;
77204;SDS011;67992;46.618;18.850;2023-03-09T12:00:22;0.57;;;0.57;;
77204;SDS011;67992;46.618;18.850;2023-03-09T12:02:58;0.95;;;0.90;;
77204;SDS011;67992;46.618;18.850;2023-03-09T12:05:39;1.85;;;0.98;;
77204;SDS011;67992;46.618;18.850;2023-03-09T12:08:33;1.05;;;0.95;;
77204;SDS011;67992;46.618;18.850;2023-03-09T12:13:46;0.65;;;0.60;;
77204;SDS011;67992;46.618;18.850;2023-03-09T12:16:20;0.68;;;0.65;;
77204;SDS011;67992;46.618;18.850;2023-03-09T12:18:58;0.90;;;0.80;;
77204;SDS011;67992;46.618;18.850;2023-03-09T12:21:32;0.70;;;0.70;;
77204;SDS011;67992;46.618;18.850;2023-03-09T12:26:45;0.75;;;0.75;;
77204;SDS011;67992;46.618;18.850;2023-03-09T12:29:26;0.63;;;0.63;;
77204;SDS011;67992;46.618;18.850;2023-03-09T12:34:59;1.02;;;0.75;;
77204;SDS011;67992;46.618;18.850;2023-03-09T12:40:17;0.60;;;0.60;;
77204;SDS011;67992;46.618;18.850;2023-03-09T12:42:58;0.73;;;0.63;;
77204;SDS011;67992;46.618;18.850;2023-03-09T12:45:43;0.80;;;0.63;;
77204;SDS011;67992;46.618;18.850;2023-03-09T13:09:14;0.70;;;0.70;;
77204;SDS011;67992;46.618;18.850;2023-03-09T13:11:49;0.80;;;0.80;;
77204;SDS011;67992;46.618;18.850;2023-03-09T13:19:28;0.85;;;0.80;;
77204;SDS011;67992;46.618;18.850;2023-03-09T13:27:23;1.50;;;0.63;;
77204;SDS011;67992;46.618;18.850;2023-03-09T13:29:58;0.95;;;0.80;;
77204;SDS011;67992;46.618;18.850;2023-03-09T13:32:46;0.40;;;0.40;;
77204;SDS011;67992;46.618;18.850;2023-03-09T13:35:24;0.85;;;0.60;;
77204;SDS011;67992;46.618;18.850;2023-03-09T13:38:00;0.77;;;0.70;;
77204;SDS011;67992;46.618;18.850;2023-03-09T13:40:35;0.65;;;0.65;;
77204;SDS011;67992;46.618;18.850;2023-03-09T13:43:09;0.75;;;0.75;;
77204;SDS011;67992;46.618;18.850;2023-03-09T13:46:02;0.50;;;0.50;;
77204;SDS011;67992;46.618;18.850;2023-03-09T13:48:46;0.63;;;0.63;;
77204;SDS011;67992;46.618;18.850;2023-03-09T13:51:50;0.73;;;0.63;;
77204;SDS011;67992;46.618;18.850;2023-03-09T13:57:13;1.00;;;0.80;;
77204;SDS011;67992;46.618;18.850;2023-03-09T14:00:00;0.95;;;0.80;;
77204;SDS011;67992;46.618;18.850;2023-03-09T14:02:35;0.50;;;0.50;;
77204;SDS011;67992;46.618;18.850;2023-03-09T14:05:06;1.02;;;0.80;;
77204;SDS011;67992;46.618;18.850;2023-03-09T14:07:56;0.63;;;0.60;;
77204;SDS011;67992;46.618;18.850;2023-03-09T14:10:33;0.80;;;0.80;;
77204;SDS011;67992;46.618;18.850;2023-03-09T14:13:47;0.70;;;0.70;;
77204;SDS011;67992;46.618;18.850;2023-03-09T14:16:00;0.68;;;0.65;;
77204;SDS011;67992;46.618;18.850;2023-03-09T14:18:41;0.98;;;0.65;;
77204;SDS011;67992;46.618;18.850;2023-03-09T14:21:34;0.63;;;0.63;;
77204;SDS011;67992;46.618;18.850;2023-03-09T14:24:23;0.75;;;0.70;;
77204;SDS011;67992;46.618;18.850;2023-03-09T14:27:41;0.80;;;0.70;;
77204;SDS011;67992;46.618;18.850;2023-03-09T14:30:23;0.70;;;0.70;;
77204;SDS011;67992;46.618;18.850;2023-03-09T14:35:31;0.73;;;0.70;;
77204;SDS011;67992;46.618;18.850;2023-03-09T14:38:23;1.25;;;0.90;;
77204;SDS011;67992;46.618;18.850;2023-03-09T14:41:00;0.70;;;0.70;;
77204;SDS011;67992;46.618;18.850;2023-03-09T14:43:32;0.88;;;0.82;;
77204;SDS011;67992;46.618;18.850;2023-03-09T14:46:22;0.88;;;0.80;;
77204;SDS011;67992;46.618;18.850;2023-03-09T14:48:57;0.68;;;0.60;;
77204;SDS011;67992;46.618;18.850;2023-03-09T14:51:34;0.57;;;0.57;;
77204;SDS011;67992;46.618;18.850;2023-03-09T14:54:11;0.60;;;0.60;;
77204;SDS011;67992;46.618;18.850;2023-03-09T14:56:43;0.57;;;0.57;;
77204;SDS011;67992;46.618;18.850;2023-03-09T14:59:12;0.50;;;0.50;;
77204;SDS011;67992;46.618;18.850;2023-03-09T15:01:40;0.40;;;0.40;;
77204;SDS011;67992;46.618;18.850;2023-03-09T15:04:11;0.60;;;0.60;;
77204;SDS011;67992;46.618;18.850;2023-03-09T15:06:44;0.50;;;0.50;;
77204;SDS011;67992;46.618;18.850;2023-03-09T15:09:16;0.43;;;0.43;;
77204;SDS011;67992;46.618;18.850;2023-03-09T15:11:41;0.55;;;0.55;;
77204;SDS011;67992;46.618;18.850;2023-03-09T15:14:41;0.63;;;0.63;;
77204;SDS011;67992;46.618;18.850;2023-03-09T15:17:04;0.93;;;0.82;;
77204;SDS011;67992;46.618;18.850;2023-03-09T15:19:37;0.45;;;0.45;;
77204;SDS011;67992;46.618;18.850;2023-03-09T15:22:07;0.68;;;0.68;;
77204;SDS011;67992;46.618;18.850;2023-03-09T15:24:39;0.60;;;0.60;;
77204;SDS011;67992;46.618;18.850;2023-03-09T15:27:08;0.68;;;0.68;;
77204;SDS011;67992;46.618;18.850;2023-03-09T15:29:38;0.98;;;0.75;;
77204;SDS011;67992;46.618;18.850;2023-03-09T15:32:04;0.68;;;0.68;;
77204;SDS011;67992;46.618;18.850;2023-03-09T15:34:35;0.73;;;0.73;;
77204;SDS011;67992;46.618;18.850;2023-03-09T15:37:07;0.85;;;0.80;;
77204;SDS011;67992;46.618;18.850;2023-03-09T15:39:33;0.90;;;0.82;;
77204;SDS011;67992;46.618;18.850;2023-03-09T15:42:04;1.38;;;1.00;;
77204;SDS011;67992;46.618;18.850;2023-03-09T15:44:33;1.70;;;1.20;;
77204;SDS011;67992;46.618;18.850;2023-03-09T15:46:59;1.08;;;0.80;;
77204;SDS011;67992;46.618;18.850;2023-03-09T15:49:31;1.20;;;0.93;;
77204;SDS011;67992;46.618;18.850;2023-03-09T15:51:58;1.17;;;0.90;;
77204;SDS011;67992;46.618;18.850;2023-03-09T15:54:27;1.23;;;1.10;;
77204;SDS011;67992;46.618;18.850;2023-03-09T15:56:56;1.27;;;1.05;;
77204;SDS011;67992;46.618;18.850;2023-03-09T15:59:22;1.42;;;1.10;;
77204;SDS011;67992;46.618;18.850;2023-03-09T16:01:48;1.23;;;0.90;;
77204;SDS011;67992;46.618;18.850;2023-03-09T16:04:21;1.20;;;1.10;;
77204;SDS011;67992;46.618;18.850;2023-03-09T16:06:47;1.58;;;1.10;;
77204;SDS011;67992;46.618;18.850;2023-03-09T16:09:16;0.95;;;0.90;;
77204;SDS011;67992;46.618;18.850;2023-03-09T16:11:45;1.17;;;0.95;;
77204;SDS011;67992;46.618;18.850;2023-03-09T16:14:11;1.25;;;1.00;;
77204;SDS011;67992;46.618;18.850;2023-03-09T16:16:36;1.30;;;1.20;;
77204;SDS011;67992;46.618;18.850;2023-03-09T16:19:02;1.70;;;1.17;;
77204;SDS011;67992;46.618;18.850;2023-03-09T16:21:33;1.38;;;1.10;;
77204;SDS011;67992;46.618;18.850;2023-03-09T16:24:02;1.33;;;1.10;;